sensor_id;sensor_type;location;lat;lon;timestamp;P1;durP1;ratioP1;P2;durP2;ratioP2
140;SDS011;65;48.778;9.160;2023-11-21T00:02:23;3.97;;;1.70;;
140;SDS011;65;48.778;9.160;2023-11-21T00:05:09;3.92;;;1.10;;
140;SDS011;65;48.778;9.160;2023-11-21T00:07:56;4.13;;;1.40;;
140;SDS011;65;48.778;9.160;2023-11-21T00:10:41;4.18;;;1.70;;
140;SDS011;65;48.778;9.160;2023-11-21T00:13:27;5.55;;;1.58;;
140;SDS011;65;48.778;9.160;2023-11-21T00:16:13;3.78;;;1.48;;
140;SDS011;65;48.778;9.160;2023-11-21T00:18:58;1.48;;;0.93;;
140;SDS011;65;48.778;9.160;2023-11-21T00:21:44;3.10;;;1.25;;
140;SDS011;65;48.778;9.160;2023-11-21T00:24:30;6.68;;;1.17;;
140;SDS011;65;48.778;9.160;2023-11-21T00:27:17;1.88;;;1.30;;
140;SDS011;65;48.778;9.160;2023-11-21T00:30:03;2.83;;;1.55;;
140;SDS011;65;48.778;9.160;2023-11-21T00:32:50;1.70;;;1.10;;
140;SDS011;65;48.778;9.160;2023-11-21T00:35:36;2.35;;;1.25;;
140;SDS011;65;48.778;9.160;2023-11-21T00:38:22;4.63;;;1.25;;
140;SDS011;65;48.778;9.160;2023-11-21T00:41:07;2.30;;;1.13;;
140;SDS011;65;48.778;9.160;2023-11-21T00:43:53;3.38;;;1.60;;
140;SDS011;65;48.778;9.160;2023-11-21T00:46:40;5.07;;;1.30;;
140;SDS011;65;48.778;9.160;2023-11-21T00:49:26;2.35;;;1.33;;
140;SDS011;65;48.778;9.160;2023-11-21T00:52:13;2.10;;;1.05;;
140;SDS011;65;48.778;9.160;2023-11-21T00:54:59;3.10;;;1.33;;
140;SDS011;65;48.778;9.160;2023-11-21T00:57:45;5.10;;;1.33;;
140;SDS011;65;48.778;9.160;2023-11-21T01:00:31;2.67;;;1.20;;
140;SDS011;65;48.778;9.160;2023-11-21T01:03:17;3.08;;;1.25;;
140;SDS011;65;48.778;9.160;2023-11-21T01:06:03;2.90;;;1.30;;
140;SDS011;65;48.778;9.160;2023-11-21T01:08:50;1.95;;;1.08;;
140;SDS011;65;48.778;9.160;2023-11-21T01:11:35;2.55;;;1.50;;
140;SDS011;65;48.778;9.160;2023-11-21T01:14:22;3.15;;;1.15;;
140;SDS011;65;48.778;9.160;2023-11-21T01:17:07;6.25;;;1.33;;
140;SDS011;65;48.778;9.160;2023-11-21T01:19:53;5.38;;;1.38;;
140;SDS011;65;48.778;9.160;2023-11-21T01:22:39;3.25;;;1.27;;
140;SDS011;65;48.778;9.160;2023-11-21T01:25:25;2.15;;;1.00;;
140;SDS011;65;48.778;9.160;2023-11-21T01:28:11;1.33;;;0.88;;
140;SDS011;65;48.778;9.160;2023-11-21T01:30:57;5.68;;;1.10;;
140;SDS011;65;48.778;9.160;2023-11-21T01:33:43;1.20;;;0.80;;
140;SDS011;65;48.778;9.160;2023-11-21T01:36:32;3.13;;;1.15;;
140;SDS011;65;48.778;9.160;2023-11-21T01:39:18;2.92;;;1.00;;
140;SDS011;65;48.778;9.160;2023-11-21T01:42:08;1.15;;;0.95;;
140;SDS011;65;48.778;9.160;2023-11-21T01:44:54;1.88;;;0.80;;
140;SDS011;65;48.778;9.160;2023-11-21T01:47:41;2.20;;;0.90;;
140;SDS011;65;48.778;9.160;2023-11-21T01:50:27;0.95;;;0.60;;
140;SDS011;65;48.778;9.160;2023-11-21T01:53:13;1.33;;;0.85;;
140;SDS011;65;48.778;9.160;2023-11-21T01:56:00;0.95;;;0.75;;
140;SDS011;65;48.778;9.160;2023-11-21T01:58:51;3.58;;;1.02;;
140;SDS011;65;48.778;9.160;2023-11-21T02:01:36;2.03;;;1.23;;
140;SDS011;65;48.778;9.160;2023-11-21T02:07:54;3.22;;;1.20;;
140;SDS011;65;48.778;9.160;2023-11-21T02:10:39;0.60;;;0.60;;
140;SDS011;65;48.778;9.160;2023-11-21T02:13:26;1.65;;;0.80;;
140;SDS011;65;48.778;9.160;2023-11-21T02:16:11;3.17;;;1.10;;
140;SDS011;65;48.778;9.160;2023-11-21T02:18:58;3.83;;;1.08;;
140;SDS011;65;48.778;9.160;2023-11-21T02:21:44;1.85;;;0.88;;
140;SDS011;65;48.778;9.160;2023-11-21T02:24:31;6.07;;;1.02;;
140;SDS011;65;48.778;9.160;2023-11-21T02:27:17;1.17;;;0.70;;
140;SDS011;65;48.778;9.160;2023-11-21T02:30:07;3.60;;;0.93;;
140;SDS011;65;48.778;9.160;2023-11-21T02:32:57;5.25;;;1.30;;
140;SDS011;65;48.778;9.160;2023-11-21T02:35:43;3.35;;;0.55;;
140;SDS011;65;48.778;9.160;2023-11-21T02:38:30;1.52;;;0.77;;
140;SDS011;65;48.778;9.160;2023-11-21T02:41:16;1.65;;;0.90;;
140;SDS011;65;48.778;9.160;2023-11-21T02:44:02;3.20;;;0.80;;
140;SDS011;65;48.778;9.160;2023-11-21T02:46:48;1.63;;;1.00;;
140;SDS011;65;48.778;9.160;2023-11-21T02:49:33;1.33;;;0.75;;
140;SDS011;65;48.778;9.160;2023-11-21T02:52:21;2.22;;;0.80;;
140;SDS011;65;48.778;9.160;2023-11-21T02:55:06;0.47;;;0.45;;
140;SDS011;65;48.778;9.160;2023-11-21T02:57:52;1.08;;;0.73;;
140;SDS011;65;48.778;9.160;2023-11-21T03:00:38;1.08;;;0.60;;
140;SDS011;65;48.778;9.160;2023-11-21T03:03:27;3.00;;;0.85;;
140;SDS011;65;48.778;9.160;2023-11-21T03:06:13;1.40;;;0.77;;
140;SDS011;65;48.778;9.160;2023-11-21T03:08:59;0.60;;;0.45;;
140;SDS011;65;48.778;9.160;2023-11-21T03:11:45;2.40;;;0.60;;
140;SDS011;65;48.778;9.160;2023-11-21T03:14:31;1.48;;;0.70;;
140;SDS011;65;48.778;9.160;2023-11-21T03:17:17;0.55;;;0.38;;
140;SDS011;65;48.778;9.160;2023-11-21T03:20:03;0.73;;;0.50;;
140;SDS011;65;48.778;9.160;2023-11-21T03:22:49;3.95;;;0.80;;
140;SDS011;65;48.778;9.160;2023-11-21T03:25:35;0.47;;;0.43;;
140;SDS011;65;48.778;9.160;2023-11-21T03:28:20;1.25;;;0.90;;
140;SDS011;65;48.778;9.160;2023-11-21T03:31:06;0.80;;;0.43;;
140;SDS011;65;48.778;9.160;2023-11-21T03:33:54;1.30;;;0.65;;
140;SDS011;65;48.778;9.160;2023-11-21T03:36:39;0.45;;;0.40;;
140;SDS011;65;48.778;9.160;2023-11-21T03:39:25;2.05;;;0.90;;
140;SDS011;65;48.778;9.160;2023-11-21T03:42:11;0.60;;;0.47;;
140;SDS011;65;48.778;9.160;2023-11-21T03:44:57;0.75;;;0.60;;
140;SDS011;65;48.778;9.160;2023-11-21T03:47:42;4.53;;;0.90;;
140;SDS011;65;48.778;9.160;2023-11-21T03:50:28;0.55;;;0.40;;
140;SDS011;65;48.778;9.160;2023-11-21T03:53:18;1.40;;;0.50;;
140;SDS011;65;48.778;9.160;2023-11-21T03:56:04;1.92;;;0.70;;
140;SDS011;65;48.778;9.160;2023-11-21T03:58:50;0.88;;;0.55;;
140;SDS011;65;48.778;9.160;2023-11-21T04:01:36;3.72;;;0.47;;
140;SDS011;65;48.778;9.160;2023-11-21T04:04:22;1.10;;;0.90;;
140;SDS011;65;48.778;9.160;2023-11-21T04:07:08;0.52;;;0.38;;
140;SDS011;65;48.778;9.160;2023-11-21T04:09:54;0.95;;;0.50;;
140;SDS011;65;48.778;9.160;2023-11-21T04:12:55;2.90;;;0.63;;
140;SDS011;65;48.778;9.160;2023-11-21T04:15:40;2.20;;;0.63;;
140;SDS011;65;48.778;9.160;2023-11-21T04:18:26;0.60;;;0.43;;
140;SDS011;65;48.778;9.160;2023-11-21T04:21:12;2.42;;;0.40;;
140;SDS011;65;48.778;9.160;2023-11-21T04:23:57;0.22;;;0.22;;
140;SDS011;65;48.778;9.160;2023-11-21T04:26:43;2.58;;;0.30;;
140;SDS011;65;48.778;9.160;2023-11-21T04:29:29;0.60;;;0.40;;
140;SDS011;65;48.778;9.160;2023-11-21T04:32:15;2.80;;;0.70;;
140;SDS011;65;48.778;9.160;2023-11-21T04:35:01;0.45;;;0.40;;
140;SDS011;65;48.778;9.160;2023-11-21T04:37:49;0.68;;;0.30;;
140;SDS011;65;48.778;9.160;2023-11-21T04:40:36;0.75;;;0.35;;
140;SDS011;65;48.778;9.160;2023-11-21T04:43:22;0.77;;;0.50;;
140;SDS011;65;48.778;9.160;2023-11-21T04:46:07;0.43;;;0.35;;
140;SDS011;65;48.778;9.160;2023-11-21T04:48:54;3.63;;;0.32;;
140;SDS011;65;48.778;9.160;2023-11-21T04:51:39;1.73;;;0.57;;
140;SDS011;65;48.778;9.160;2023-11-21T04:54:25;1.45;;;0.63;;
140;SDS011;65;48.778;9.160;2023-11-21T04:57:11;1.05;;;0.63;;
140;SDS011;65;48.778;9.160;2023-11-21T04:59:57;0.98;;;0.55;;
140;SDS011;65;48.778;9.160;2023-11-21T05:02:43;1.40;;;0.60;;
140;SDS011;65;48.778;9.160;2023-11-21T05:05:29;1.02;;;0.47;;
140;SDS011;65;48.778;9.160;2023-11-21T05:08:15;0.28;;;0.28;;
140;SDS011;65;48.778;9.160;2023-11-21T05:11:00;0.40;;;0.40;;
140;SDS011;65;48.778;9.160;2023-11-21T05:13:46;1.08;;;0.55;;
140;SDS011;65;48.778;9.160;2023-11-21T05:16:32;2.30;;;0.55;;
140;SDS011;65;48.778;9.160;2023-11-21T05:19:19;1.33;;;0.70;;
140;SDS011;65;48.778;9.160;2023-11-21T05:22:04;0.38;;;0.38;;
140;SDS011;65;48.778;9.160;2023-11-21T05:24:51;0.40;;;0.38;;
140;SDS011;65;48.778;9.160;2023-11-21T05:27:36;1.48;;;0.55;;
140;SDS011;65;48.778;9.160;2023-11-21T05:30:22;1.42;;;0.68;;
140;SDS011;65;48.778;9.160;2023-11-21T05:33:08;0.63;;;0.60;;
140;SDS011;65;48.778;9.160;2023-11-21T05:35:53;1.30;;;0.65;;
140;SDS011;65;48.778;9.160;2023-11-21T05:38:39;0.43;;;0.40;;
140;SDS011;65;48.778;9.160;2023-11-21T05:41:25;1.65;;;0.60;;
140;SDS011;65;48.778;9.160;2023-11-21T05:44:11;0.47;;;0.47;;
140;SDS011;65;48.778;9.160;2023-11-21T05:46:57;0.65;;;0.40;;
140;SDS011;65;48.778;9.160;2023-11-21T05:49:44;1.70;;;0.73;;
140;SDS011;65;48.778;9.160;2023-11-21T05:52:30;1.75;;;0.60;;
140;SDS011;65;48.778;9.160;2023-11-21T05:55:17;0.30;;;0.30;;
140;SDS011;65;48.778;9.160;2023-11-21T05:58:06;0.38;;;0.30;;
140;SDS011;65;48.778;9.160;2023-11-21T06:00:52;0.63;;;0.45;;
140;SDS011;65;48.778;9.160;2023-11-21T06:03:38;0.90;;;0.65;;
140;SDS011;65;48.778;9.160;2023-11-21T06:06:24;1.27;;;0.52;;
140;SDS011;65;48.778;9.160;2023-11-21T06:09:11;0.65;;;0.52;;
140;SDS011;65;48.778;9.160;2023-11-21T06:11:57;0.57;;;0.57;;
140;SDS011;65;48.778;9.160;2023-11-21T06:14:43;0.45;;;0.45;;
140;SDS011;65;48.778;9.160;2023-11-21T06:17:29;0.57;;;0.57;;
140;SDS011;65;48.778;9.160;2023-11-21T06:20:15;0.90;;;0.63;;
140;SDS011;65;48.778;9.160;2023-11-21T06:23:06;0.85;;;0.57;;
140;SDS011;65;48.778;9.160;2023-11-21T06:25:52;1.45;;;0.70;;
140;SDS011;65;48.778;9.160;2023-11-21T06:28:38;0.80;;;0.73;;
140;SDS011;65;48.778;9.160;2023-11-21T06:31:24;1.10;;;0.80;;
140;SDS011;65;48.778;9.160;2023-11-21T06:34:09;2.05;;;0.68;;
140;SDS011;65;48.778;9.160;2023-11-21T06:36:55;1.48;;;0.88;;
140;SDS011;65;48.778;9.160;2023-11-21T06:39:41;1.65;;;0.77;;
140;SDS011;65;48.778;9.160;2023-11-21T06:42:27;1.52;;;0.93;;
140;SDS011;65;48.778;9.160;2023-11-21T06:45:15;2.13;;;1.10;;
140;SDS011;65;48.778;9.160;2023-11-21T06:48:01;1.65;;;1.08;;
140;SDS011;65;48.778;9.160;2023-11-21T06:50:46;1.48;;;1.10;;
140;SDS011;65;48.778;9.160;2023-11-21T06:53:32;1.92;;;1.20;;
140;SDS011;65;48.778;9.160;2023-11-21T06:56:18;2.20;;;0.70;;
140;SDS011;65;48.778;9.160;2023-11-21T06:59:04;1.15;;;0.90;;
140;SDS011;65;48.778;9.160;2023-11-21T07:01:51;0.57;;;0.57;;
140;SDS011;65;48.778;9.160;2023-11-21T07:04:36;1.70;;;0.95;;
140;SDS011;65;48.778;9.160;2023-11-21T07:07:22;1.00;;;0.60;;
140;SDS011;65;48.778;9.160;2023-11-21T07:10:08;0.88;;;0.77;;
140;SDS011;65;48.778;9.160;2023-11-21T07:12:54;3.13;;;1.40;;
140;SDS011;65;48.778;9.160;2023-11-21T07:15:40;2.15;;;1.38;;
140;SDS011;65;48.778;9.160;2023-11-21T07:18:26;2.67;;;1.30;;
140;SDS011;65;48.778;9.160;2023-11-21T07:21:12;2.63;;;1.40;;
140;SDS011;65;48.778;9.160;2023-11-21T07:23:57;1.58;;;1.10;;
140;SDS011;65;48.778;9.160;2023-11-21T07:26:43;2.67;;;1.30;;
140;SDS011;65;48.778;9.160;2023-11-21T07:29:29;2.38;;;1.52;;
140;SDS011;65;48.778;9.160;2023-11-21T07:32:18;5.07;;;1.17;;
140;SDS011;65;48.778;9.160;2023-11-21T07:35:04;2.45;;;1.05;;
140;SDS011;65;48.778;9.160;2023-11-21T07:37:50;3.63;;;1.00;;
140;SDS011;65;48.778;9.160;2023-11-21T07:40:36;1.30;;;0.85;;
140;SDS011;65;48.778;9.160;2023-11-21T07:43:22;3.75;;;1.23;;
140;SDS011;65;48.778;9.160;2023-11-21T07:46:07;1.30;;;0.90;;
140;SDS011;65;48.778;9.160;2023-11-21T07:48:56;2.10;;;1.00;;
140;SDS011;65;48.778;9.160;2023-11-21T07:51:43;1.48;;;1.08;;
140;SDS011;65;48.778;9.160;2023-11-21T07:54:29;1.90;;;0.98;;
140;SDS011;65;48.778;9.160;2023-11-21T07:57:15;1.45;;;0.93;;
140;SDS011;65;48.778;9.160;2023-11-21T08:00:01;1.58;;;1.10;;
140;SDS011;65;48.778;9.160;2023-11-21T08:02:48;1.42;;;1.10;;
140;SDS011;65;48.778;9.160;2023-11-21T08:05:33;1.95;;;1.08;;
140;SDS011;65;48.778;9.160;2023-11-21T08:08:19;2.58;;;1.05;;
140;SDS011;65;48.778;9.160;2023-11-21T08:11:06;2.78;;;1.25;;
140;SDS011;65;48.778;9.160;2023-11-21T08:13:53;1.17;;;0.90;;
140;SDS011;65;48.778;9.160;2023-11-21T08:16:39;2.35;;;1.20;;
140;SDS011;65;48.778;9.160;2023-11-21T08:19:25;1.30;;;0.90;;
140;SDS011;65;48.778;9.160;2023-11-21T08:22:11;1.30;;;0.90;;
140;SDS011;65;48.778;9.160;2023-11-21T08:24:57;1.70;;;0.85;;
140;SDS011;65;48.778;9.160;2023-11-21T08:27:43;2.90;;;1.13;;
140;SDS011;65;48.778;9.160;2023-11-21T08:30:29;3.38;;;1.20;;
140;SDS011;65;48.778;9.160;2023-11-21T08:33:15;1.27;;;0.93;;
140;SDS011;65;48.778;9.160;2023-11-21T08:36:01;0.70;;;0.63;;
140;SDS011;65;48.778;9.160;2023-11-21T08:38:53;1.55;;;1.00;;
140;SDS011;65;48.778;9.160;2023-11-21T08:41:38;3.42;;;0.95;;
140;SDS011;65;48.778;9.160;2023-11-21T08:44:24;2.10;;;0.98;;
140;SDS011;65;48.778;9.160;2023-11-21T08:47:10;1.63;;;1.10;;
140;SDS011;65;48.778;9.160;2023-11-21T08:49:58;1.15;;;1.00;;
140;SDS011;65;48.778;9.160;2023-11-21T08:52:44;1.85;;;1.15;;
140;SDS011;65;48.778;9.160;2023-11-21T08:55:31;2.00;;;0.90;;
140;SDS011;65;48.778;9.160;2023-11-21T08:58:17;2.90;;;1.10;;
140;SDS011;65;48.778;9.160;2023-11-21T09:01:03;4.75;;;1.00;;
140;SDS011;65;48.778;9.160;2023-11-21T09:03:49;1.58;;;1.00;;
140;SDS011;65;48.778;9.160;2023-11-21T09:06:35;1.88;;;1.02;;
140;SDS011;65;48.778;9.160;2023-11-21T09:09:21;1.05;;;0.73;;
140;SDS011;65;48.778;9.160;2023-11-21T09:12:07;2.47;;;1.30;;
140;SDS011;65;48.778;9.160;2023-11-21T09:14:53;0.70;;;0.70;;
140;SDS011;65;48.778;9.160;2023-11-21T09:17:39;0.93;;;0.80;;
140;SDS011;65;48.778;9.160;2023-11-21T09:20:25;1.40;;;0.88;;
140;SDS011;65;48.778;9.160;2023-11-21T09:23:29;1.27;;;0.90;;
140;SDS011;65;48.778;9.160;2023-11-21T09:26:29;1.63;;;0.95;;
140;SDS011;65;48.778;9.160;2023-11-21T09:29:15;1.58;;;1.02;;
140;SDS011;65;48.778;9.160;2023-11-21T09:32:01;0.85;;;0.77;;
140;SDS011;65;48.778;9.160;2023-11-21T09:34:48;2.15;;;1.42;;
140;SDS011;65;48.778;9.160;2023-11-21T09:37:35;1.92;;;0.85;;
140;SDS011;65;48.778;9.160;2023-11-21T09:40:23;1.15;;;0.68;;
140;SDS011;65;48.778;9.160;2023-11-21T09:43:13;1.75;;;0.75;;
140;SDS011;65;48.778;9.160;2023-11-21T09:46:05;0.82;;;0.77;;
140;SDS011;65;48.778;9.160;2023-11-21T09:48:56;1.30;;;0.80;;
140;SDS011;65;48.778;9.160;2023-11-21T09:51:45;1.88;;;0.90;;
140;SDS011;65;48.778;9.160;2023-11-21T09:54:32;1.67;;;1.08;;
140;SDS011;65;48.778;9.160;2023-11-21T09:57:20;1.05;;;0.32;;
140;SDS011;65;48.778;9.160;2023-11-21T10:00:09;3.42;;;0.80;;
140;SDS011;65;48.778;9.160;2023-11-21T10:02:57;0.60;;;0.55;;
140;SDS011;65;48.778;9.160;2023-11-21T10:05:44;0.75;;;0.40;;
140;SDS011;65;48.778;9.160;2023-11-21T10:08:33;0.63;;;0.55;;
140;SDS011;65;48.778;9.160;2023-11-21T10:11:21;0.52;;;0.40;;
140;SDS011;65;48.778;9.160;2023-11-21T10:14:10;1.27;;;0.52;;
140;SDS011;65;48.778;9.160;2023-11-21T10:16:58;0.40;;;0.40;;
140;SDS011;65;48.778;9.160;2023-11-21T10:19:45;0.85;;;0.45;;
140;SDS011;65;48.778;9.160;2023-11-21T10:22:32;0.10;;;0.10;;
140;SDS011;65;48.778;9.160;2023-11-21T10:25:19;0.95;;;0.50;;
140;SDS011;65;48.778;9.160;2023-11-21T10:28:12;0.43;;;0.30;;
140;SDS011;65;48.778;9.160;2023-11-21T10:30:57;0.38;;;0.25;;
140;SDS011;65;48.778;9.160;2023-11-21T10:33:43;0.38;;;0.30;;
140;SDS011;65;48.778;9.160;2023-11-21T10:36:29;0.00;;;0.00;;
140;SDS011;65;48.778;9.160;2023-11-21T10:39:18;0.10;;;0.10;;
140;SDS011;65;48.778;9.160;2023-11-21T10:45:39;2.45;;;0.40;;
140;SDS011;65;48.778;9.160;2023-11-21T10:48:25;0.15;;;0.13;;
140;SDS011;65;48.778;9.160;2023-11-21T10:51:10;1.38;;;0.68;;
140;SDS011;65;48.778;9.160;2023-11-21T10:53:56;5.35;;;0.88;;
140;SDS011;65;48.778;9.160;2023-11-21T10:56:42;0.70;;;0.40;;
140;SDS011;65;48.778;9.160;2023-11-21T10:59:30;1.23;;;0.68;;
140;SDS011;65;48.778;9.160;2023-11-21T11:02:25;1.35;;;0.57;;
140;SDS011;65;48.778;9.160;2023-11-21T11:05:13;1.83;;;0.77;;
140;SDS011;65;48.778;9.160;2023-11-21T11:08:08;1.58;;;0.77;;
140;SDS011;65;48.778;9.160;2023-11-21T11:10:57;3.60;;;1.00;;
140;SDS011;65;48.778;9.160;2023-11-21T11:13:43;1.17;;;0.65;;
140;SDS011;65;48.778;9.160;2023-11-21T11:16:31;0.95;;;0.70;;
140;SDS011;65;48.778;9.160;2023-11-21T11:19:17;1.15;;;0.75;;
140;SDS011;65;48.778;9.160;2023-11-21T11:34:44;0.55;;;0.50;;
140;SDS011;65;48.778;9.160;2023-11-21T11:37:35;0.65;;;0.65;;
140;SDS011;65;48.778;9.160;2023-11-21T11:40:21;0.38;;;0.38;;
140;SDS011;65;48.778;9.160;2023-11-21T11:43:08;1.42;;;0.70;;
140;SDS011;65;48.778;9.160;2023-11-21T11:45:55;2.55;;;0.80;;
140;SDS011;65;48.778;9.160;2023-11-21T11:48:44;1.13;;;0.75;;
140;SDS011;65;48.778;9.160;2023-11-21T11:51:30;1.50;;;0.80;;
140;SDS011;65;48.778;9.160;2023-11-21T11:54:19;0.98;;;0.80;;
140;SDS011;65;48.778;9.160;2023-11-21T11:57:23;1.60;;;1.08;;
140;SDS011;65;48.778;9.160;2023-11-21T12:00:10;1.50;;;0.90;;
140;SDS011;65;48.778;9.160;2023-11-21T12:03:20;0.73;;;0.73;;
140;SDS011;65;48.778;9.160;2023-11-21T12:06:06;2.90;;;1.10;;
140;SDS011;65;48.778;9.160;2023-11-21T12:08:53;1.40;;;1.00;;
140;SDS011;65;48.778;9.160;2023-11-21T12:11:40;0.82;;;0.82;;
140;SDS011;65;48.778;9.160;2023-11-21T12:14:29;1.98;;;1.30;;
140;SDS011;65;48.778;9.160;2023-11-21T12:17:16;1.27;;;0.88;;
140;SDS011;65;48.778;9.160;2023-11-21T12:20:02;0.90;;;0.80;;
140;SDS011;65;48.778;9.160;2023-11-21T12:22:50;2.42;;;1.40;;
140;SDS011;65;48.778;9.160;2023-11-21T12:25:38;1.63;;;1.27;;
140;SDS011;65;48.778;9.160;2023-11-21T12:28:25;1.20;;;1.10;;
140;SDS011;65;48.778;9.160;2023-11-21T12:31:12;2.30;;;1.42;;
140;SDS011;65;48.778;9.160;2023-11-21T12:33:58;1.50;;;1.10;;
140;SDS011;65;48.778;9.160;2023-11-21T12:36:44;1.85;;;1.33;;
140;SDS011;65;48.778;9.160;2023-11-21T12:39:31;1.45;;;1.00;;
140;SDS011;65;48.778;9.160;2023-11-21T12:42:16;2.97;;;1.00;;
140;SDS011;65;48.778;9.160;2023-11-21T12:45:10;0.60;;;0.60;;
140;SDS011;65;48.778;9.160;2023-11-21T12:48:03;1.42;;;0.80;;
140;SDS011;65;48.778;9.160;2023-11-21T12:50:53;0.68;;;0.68;;
140;SDS011;65;48.778;9.160;2023-11-21T12:53:41;0.75;;;0.73;;
140;SDS011;65;48.778;9.160;2023-11-21T12:56:28;0.90;;;0.77;;
140;SDS011;65;48.778;9.160;2023-11-21T12:59:14;1.08;;;0.88;;
140;SDS011;65;48.778;9.160;2023-11-21T13:02:01;1.90;;;1.02;;
140;SDS011;65;48.778;9.160;2023-11-21T13:04:54;1.00;;;0.90;;
140;SDS011;65;48.778;9.160;2023-11-21T13:07:44;1.83;;;0.93;;
140;SDS011;65;48.778;9.160;2023-11-21T13:10:32;1.20;;;0.88;;
140;SDS011;65;48.778;9.160;2023-11-21T13:13:21;1.40;;;1.10;;
140;SDS011;65;48.778;9.160;2023-11-21T13:16:11;1.08;;;0.90;;
140;SDS011;65;48.778;9.160;2023-11-21T13:19:15;0.85;;;0.85;;
140;SDS011;65;48.778;9.160;2023-11-21T13:22:38;0.32;;;0.32;;
140;SDS011;65;48.778;9.160;2023-11-21T13:25:24;0.75;;;0.50;;
140;SDS011;65;48.778;9.160;2023-11-21T13:28:12;0.47;;;0.20;;
140;SDS011;65;48.778;9.160;2023-11-21T13:31:01;0.57;;;0.50;;
140;SDS011;65;48.778;9.160;2023-11-21T13:33:54;1.52;;;0.73;;
140;SDS011;65;48.778;9.160;2023-11-21T13:36:44;0.65;;;0.63;;
140;SDS011;65;48.778;9.160;2023-11-21T13:39:31;0.80;;;0.70;;
140;SDS011;65;48.778;9.160;2023-11-21T13:42:17;1.75;;;0.47;;
140;SDS011;65;48.778;9.160;2023-11-21T13:45:03;1.13;;;0.70;;
140;SDS011;65;48.778;9.160;2023-11-21T13:47:51;1.38;;;0.93;;
140;SDS011;65;48.778;9.160;2023-11-21T13:50:40;2.30;;;1.15;;
140;SDS011;65;48.778;9.160;2023-11-21T13:53:34;1.80;;;0.77;;
140;SDS011;65;48.778;9.160;2023-11-21T13:56:22;1.05;;;0.82;;
140;SDS011;65;48.778;9.160;2023-11-21T13:59:09;0.70;;;0.70;;
140;SDS011;65;48.778;9.160;2023-11-21T14:02:06;1.77;;;1.00;;
140;SDS011;65;48.778;9.160;2023-11-21T14:05:03;1.50;;;0.80;;
140;SDS011;65;48.778;9.160;2023-11-21T14:07:57;2.03;;;1.00;;
140;SDS011;65;48.778;9.160;2023-11-21T14:10:50;0.88;;;0.73;;
140;SDS011;65;48.778;9.160;2023-11-21T14:13:42;1.73;;;1.10;;
140;SDS011;65;48.778;9.160;2023-11-21T14:16:31;2.10;;;1.30;;
140;SDS011;65;48.778;9.160;2023-11-21T14:19:17;1.50;;;0.95;;
140;SDS011;65;48.778;9.160;2023-11-21T14:22:03;1.48;;;1.08;;
140;SDS011;65;48.778;9.160;2023-11-21T14:24:50;2.45;;;1.33;;
140;SDS011;65;48.778;9.160;2023-11-21T14:27:37;2.83;;;1.40;;
140;SDS011;65;48.778;9.160;2023-11-21T14:30:23;2.03;;;1.25;;
140;SDS011;65;48.778;9.160;2023-11-21T14:33:09;2.42;;;1.27;;
140;SDS011;65;48.778;9.160;2023-11-21T14:35:56;1.83;;;1.33;;
140;SDS011;65;48.778;9.160;2023-11-21T14:38:43;2.03;;;1.30;;
140;SDS011;65;48.778;9.160;2023-11-21T14:41:29;2.22;;;1.65;;
140;SDS011;65;48.778;9.160;2023-11-21T14:44:14;2.53;;;1.30;;
140;SDS011;65;48.778;9.160;2023-11-21T14:47:00;2.92;;;1.23;;
140;SDS011;65;48.778;9.160;2023-11-21T14:49:51;1.77;;;1.20;;
140;SDS011;65;48.778;9.160;2023-11-21T14:52:38;2.25;;;1.30;;
140;SDS011;65;48.778;9.160;2023-11-21T14:55:39;2.67;;;1.33;;
140;SDS011;65;48.778;9.160;2023-11-21T14:58:37;1.85;;;1.20;;
140;SDS011;65;48.778;9.160;2023-11-21T15:01:24;1.75;;;1.25;;
140;SDS011;65;48.778;9.160;2023-11-21T15:04:28;2.00;;;1.38;;
140;SDS011;65;48.778;9.160;2023-11-21T15:07:24;1.52;;;1.20;;
140;SDS011;65;48.778;9.160;2023-11-21T15:10:12;1.80;;;1.30;;
140;SDS011;65;48.778;9.160;2023-11-21T15:13:09;2.58;;;1.65;;
140;SDS011;65;48.778;9.160;2023-11-21T15:16:01;1.92;;;1.52;;
140;SDS011;65;48.778;9.160;2023-11-21T15:18:53;2.95;;;1.88;;
140;SDS011;65;48.778;9.160;2023-11-21T15:21:39;3.15;;;1.95;;
140;SDS011;65;48.778;9.160;2023-11-21T15:24:25;3.10;;;1.95;;
140;SDS011;65;48.778;9.160;2023-11-21T15:27:11;2.20;;;1.60;;
140;SDS011;65;48.778;9.160;2023-11-21T15:29:57;3.53;;;2.10;;
140;SDS011;65;48.778;9.160;2023-11-21T15:32:46;3.33;;;1.88;;
140;SDS011;65;48.778;9.160;2023-11-21T15:35:32;4.22;;;2.28;;
140;SDS011;65;48.778;9.160;2023-11-21T15:38:18;3.28;;;1.92;;
140;SDS011;65;48.778;9.160;2023-11-21T15:41:04;4.43;;;2.17;;
140;SDS011;65;48.778;9.160;2023-11-21T15:43:52;3.85;;;2.25;;
140;SDS011;65;48.778;9.160;2023-11-21T15:46:38;3.15;;;1.90;;
140;SDS011;65;48.778;9.160;2023-11-21T15:49:26;2.95;;;1.88;;
140;SDS011;65;48.778;9.160;2023-11-21T15:52:13;4.43;;;2.40;;
140;SDS011;65;48.778;9.160;2023-11-21T15:54:59;3.50;;;2.15;;
140;SDS011;65;48.778;9.160;2023-11-21T15:57:46;3.78;;;2.03;;
140;SDS011;65;48.778;9.160;2023-11-21T16:00:32;4.53;;;2.47;;
140;SDS011;65;48.778;9.160;2023-11-21T16:03:17;5.20;;;2.25;;
140;SDS011;65;48.778;9.160;2023-11-21T16:06:03;3.75;;;2.35;;
140;SDS011;65;48.778;9.160;2023-11-21T16:08:49;3.47;;;2.05;;
140;SDS011;65;48.778;9.160;2023-11-21T16:11:36;4.20;;;2.35;;
140;SDS011;65;48.778;9.160;2023-11-21T16:14:22;4.35;;;2.20;;
140;SDS011;65;48.778;9.160;2023-11-21T16:17:11;4.97;;;2.35;;
140;SDS011;65;48.778;9.160;2023-11-21T16:19:57;3.38;;;1.90;;
140;SDS011;65;48.778;9.160;2023-11-21T16:22:43;4.43;;;2.38;;
140;SDS011;65;48.778;9.160;2023-11-21T16:25:29;4.32;;;2.35;;
140;SDS011;65;48.778;9.160;2023-11-21T16:28:15;4.82;;;2.45;;
140;SDS011;65;48.778;9.160;2023-11-21T16:31:01;6.20;;;2.78;;
140;SDS011;65;48.778;9.160;2023-11-21T16:33:47;6.85;;;2.60;;
140;SDS011;65;48.778;9.160;2023-11-21T16:36:33;5.28;;;2.35;;
140;SDS011;65;48.778;9.160;2023-11-21T16:39:19;7.53;;;2.85;;
140;SDS011;65;48.778;9.160;2023-11-21T16:42:07;5.05;;;2.65;;
140;SDS011;65;48.778;9.160;2023-11-21T16:48:25;4.53;;;2.72;;
140;SDS011;65;48.778;9.160;2023-11-21T16:51:11;6.63;;;3.25;;
140;SDS011;65;48.778;9.160;2023-11-21T16:53:57;5.28;;;2.90;;
140;SDS011;65;48.778;9.160;2023-11-21T16:56:43;5.15;;;3.03;;
140;SDS011;65;48.778;9.160;2023-11-21T16:59:32;5.45;;;2.90;;
140;SDS011;65;48.778;9.160;2023-11-21T17:02:18;6.72;;;3.70;;
140;SDS011;65;48.778;9.160;2023-11-21T17:05:04;5.95;;;3.10;;
140;SDS011;65;48.778;9.160;2023-11-21T17:07:51;6.47;;;3.45;;
140;SDS011;65;48.778;9.160;2023-11-21T17:10:37;8.63;;;3.78;;
140;SDS011;65;48.778;9.160;2023-11-21T17:13:24;6.88;;;3.95;;
140;SDS011;65;48.778;9.160;2023-11-21T17:16:10;8.10;;;4.05;;
140;SDS011;65;48.778;9.160;2023-11-21T17:18:56;9.65;;;3.97;;
140;SDS011;65;48.778;9.160;2023-11-21T17:21:42;7.72;;;3.63;;
140;SDS011;65;48.778;9.160;2023-11-21T17:24:28;9.18;;;4.75;;
140;SDS011;65;48.778;9.160;2023-11-21T17:27:14;8.10;;;4.50;;
140;SDS011;65;48.778;9.160;2023-11-21T17:29:59;8.20;;;3.60;;
140;SDS011;65;48.778;9.160;2023-11-21T17:32:45;10.93;;;4.63;;
140;SDS011;65;48.778;9.160;2023-11-21T17:35:32;7.72;;;4.15;;
140;SDS011;65;48.778;9.160;2023-11-21T17:38:18;11.43;;;4.75;;
140;SDS011;65;48.778;9.160;2023-11-21T17:41:04;7.78;;;3.90;;
140;SDS011;65;48.778;9.160;2023-11-21T17:43:50;7.22;;;3.92;;
140;SDS011;65;48.778;9.160;2023-11-21T17:46:36;9.13;;;4.07;;
140;SDS011;65;48.778;9.160;2023-11-21T17:49:21;6.82;;;3.70;;
140;SDS011;65;48.778;9.160;2023-11-21T17:52:07;8.00;;;4.15;;
140;SDS011;65;48.778;9.160;2023-11-21T17:54:53;11.25;;;4.43;;
140;SDS011;65;48.778;9.160;2023-11-21T17:57:39;6.93;;;3.53;;
140;SDS011;65;48.778;9.160;2023-11-21T18:00:25;7.72;;;4.50;;
140;SDS011;65;48.778;9.160;2023-11-21T18:03:11;9.77;;;4.75;;
140;SDS011;65;48.778;9.160;2023-11-21T18:05:57;7.20;;;4.22;;
140;SDS011;65;48.778;9.160;2023-11-21T18:08:43;8.45;;;4.43;;
140;SDS011;65;48.778;9.160;2023-11-21T18:11:29;11.52;;;4.05;;
140;SDS011;65;48.778;9.160;2023-11-21T18:17:23;8.73;;;4.15;;
140;SDS011;65;48.778;9.160;2023-11-21T18:20:09;8.60;;;4.35;;
140;SDS011;65;48.778;9.160;2023-11-21T18:22:55;7.20;;;3.78;;
140;SDS011;65;48.778;9.160;2023-11-21T18:25:41;8.60;;;4.80;;
140;SDS011;65;48.778;9.160;2023-11-21T18:28:27;9.25;;;4.15;;
140;SDS011;65;48.778;9.160;2023-11-21T18:31:13;7.40;;;4.43;;
140;SDS011;65;48.778;9.160;2023-11-21T18:34:00;8.15;;;4.45;;
140;SDS011;65;48.778;9.160;2023-11-21T18:36:46;7.20;;;3.92;;
140;SDS011;65;48.778;9.160;2023-11-21T18:39:31;7.97;;;4.22;;